OIGG  Sardar-e-Jangal  Airport

Rasht, Iran

Add Bookmark
ICAO OIGG
IATA RAS
Type Airport
Status Operational
Latitude
37° 19' 23" N
37.323333
Longitude
49° 37' 4" E
49.617778
Local (GMT +3.5 ) UTC
Sep 28, 2016 05:10 am Sep 28, 2016 01:40
Sunrise-Sunset Local UTC
Begin Civil Twilight 05:37 am 02:07
Sunrise 06:03 am 02:33
Sunset 06:00 pm 14:30
End Civil Twilight 06:26 pm 14:56
VFR
VFR
MVFR
MVFR
IFR
IFR
LIFR
LIFR
Unknown
Unavailable

Current Weather

METAR Observed VFR
OIGG 280100Z 00000KT 9999 FEW015CB SCT020 BKN080 20/18 Q1016 Wed, Sep 28, 2016 @ 01:00 UTC
(40 Minutes ago)
Visual Flight Rules
Wind Visibility Clouds Conditions
Calm 10 km or more
  • Few at 1,500 ft AGL
  • Scattered at 2,000 ft AGL
  • Broken at 8,000 ft AGL
  • No significant weather
Temperatures Readings Precipitation
Current Temp
20°C
68°F
Dewpoint
18°C
64°F
Humidity 88%
Altimeter 30" Hg
Sea Level Pressure 1,016 mb
None Recorded
-
-

CheckWX.com is intended as a tool to help pilots better visualize weather data. It is not intended as a substitute for an official weather briefing obtained from a Flight Service Station. CheckWX.com does not meet the FAA requirements for an official pre-flight weather briefing. Therefore, it's important that pilots still call and obtain an official FSS pre-flight weather briefing.

© 2007-2016 CheckWX.com
01:40:33 UTC